sensor_id;sensor_type;location;lat;lon;timestamp;P1;durP1;ratioP1;P2;durP2;ratioP2
17024;SDS011;8629;42.496;25.620;2022-12-05T00:01:19;4.77;;;4.27;;
17024;SDS011;8629;42.496;25.620;2022-12-05T00:03:49;4.93;;;4.43;;
17024;SDS011;8629;42.496;25.620;2022-12-05T00:06:17;5.43;;;4.80;;
17024;SDS011;8629;42.496;25.620;2022-12-05T00:08:45;4.50;;;3.93;;
17024;SDS011;8629;42.496;25.620;2022-12-05T00:11:13;4.50;;;3.97;;
17024;SDS011;8629;42.496;25.620;2022-12-05T00:13:41;5.00;;;4.10;;
17024;SDS011;8629;42.496;25.620;2022-12-05T00:16:12;10.07;;;6.33;;
17024;SDS011;8629;42.496;25.620;2022-12-05T00:18:42;11.80;;;9.33;;
17024;SDS011;8629;42.496;25.620;2022-12-05T00:21:11;15.20;;;9.93;;
17024;SDS011;8629;42.496;25.620;2022-12-05T00:23:39;12.57;;;8.70;;
17024;SDS011;8629;42.496;25.620;2022-12-05T00:26:07;11.40;;;7.80;;
17024;SDS011;8629;42.496;25.620;2022-12-05T00:28:36;10.17;;;7.80;;
17024;SDS011;8629;42.496;25.620;2022-12-05T00:31:04;9.97;;;8.00;;
17024;SDS011;8629;42.496;25.620;2022-12-05T00:33:34;8.57;;;7.73;;
17024;SDS011;8629;42.496;25.620;2022-12-05T00:36:02;8.80;;;7.23;;
17024;SDS011;8629;42.496;25.620;2022-12-05T00:38:30;9.33;;;7.20;;
17024;SDS011;8629;42.496;25.620;2022-12-05T00:41:01;14.80;;;8.23;;
17024;SDS011;8629;42.496;25.620;2022-12-05T00:43:29;10.50;;;9.13;;
17024;SDS011;8629;42.496;25.620;2022-12-05T00:45:59;10.87;;;7.87;;
17024;SDS011;8629;42.496;25.620;2022-12-05T00:48:27;11.70;;;8.53;;
17024;SDS011;8629;42.496;25.620;2022-12-05T00:51:05;11.57;;;8.30;;
17024;SDS011;8629;42.496;25.620;2022-12-05T00:53:34;13.27;;;7.90;;
17024;SDS011;8629;42.496;25.620;2022-12-05T00:56:02;10.07;;;7.90;;
17024;SDS011;8629;42.496;25.620;2022-12-05T00:58:30;24.77;;;14.20;;
17024;SDS011;8629;42.496;25.620;2022-12-05T01:01:03;20.77;;;14.80;;
17024;SDS011;8629;42.496;25.620;2022-12-05T01:03:32;17.60;;;13.50;;
17024;SDS011;8629;42.496;25.620;2022-12-05T01:06:00;14.23;;;11.67;;
17024;SDS011;8629;42.496;25.620;2022-12-05T01:08:31;17.17;;;12.00;;
17024;SDS011;8629;42.496;25.620;2022-12-05T01:10:59;12.93;;;9.97;;
17024;SDS011;8629;42.496;25.620;2022-12-05T01:13:29;10.57;;;8.20;;
17024;SDS011;8629;42.496;25.620;2022-12-05T01:15:58;9.00;;;6.87;;
17024;SDS011;8629;42.496;25.620;2022-12-05T01:18:26;9.17;;;7.23;;
17024;SDS011;8629;42.496;25.620;2022-12-05T01:20:54;17.53;;;14.87;;
17024;SDS011;8629;42.496;25.620;2022-12-05T01:23:22;16.50;;;12.90;;
17024;SDS011;8629;42.496;25.620;2022-12-05T01:25:52;13.57;;;9.77;;
17024;SDS011;8629;42.496;25.620;2022-12-05T01:28:19;9.57;;;7.90;;
17024;SDS011;8629;42.496;25.620;2022-12-05T01:30:52;10.90;;;8.10;;
17024;SDS011;8629;42.496;25.620;2022-12-05T01:33:20;8.80;;;7.90;;
17024;SDS011;8629;42.496;25.620;2022-12-05T01:35:47;8.40;;;6.90;;
17024;SDS011;8629;42.496;25.620;2022-12-05T01:38:16;8.03;;;6.93;;
17024;SDS011;8629;42.496;25.620;2022-12-05T01:40:43;10.07;;;7.57;;
17024;SDS011;8629;42.496;25.620;2022-12-05T01:43:14;9.87;;;7.40;;
17024;SDS011;8629;42.496;25.620;2022-12-05T01:45:43;7.50;;;6.50;;
17024;SDS011;8629;42.496;25.620;2022-12-05T01:48:12;7.60;;;6.67;;
17024;SDS011;8629;42.496;25.620;2022-12-05T01:50:42;9.33;;;6.33;;
17024;SDS011;8629;42.496;25.620;2022-12-05T01:53:10;11.93;;;9.20;;
17024;SDS011;8629;42.496;25.620;2022-12-05T01:55:38;8.57;;;6.70;;
17024;SDS011;8629;42.496;25.620;2022-12-05T01:58:06;8.10;;;7.07;;
17024;SDS011;8629;42.496;25.620;2022-12-05T02:00:36;8.33;;;7.03;;
17024;SDS011;8629;42.496;25.620;2022-12-05T02:03:06;10.70;;;7.67;;
17024;SDS011;8629;42.496;25.620;2022-12-05T02:05:37;7.53;;;6.70;;
17024;SDS011;8629;42.496;25.620;2022-12-05T02:08:06;9.67;;;8.37;;
17024;SDS011;8629;42.496;25.620;2022-12-05T02:10:38;8.67;;;7.77;;
17024;SDS011;8629;42.496;25.620;2022-12-05T02:13:11;8.30;;;7.23;;
17024;SDS011;8629;42.496;25.620;2022-12-05T02:15:47;9.13;;;6.67;;
17024;SDS011;8629;42.496;25.620;2022-12-05T02:18:22;9.37;;;7.07;;
17024;SDS011;8629;42.496;25.620;2022-12-05T02:21:00;8.37;;;7.30;;
17024;SDS011;8629;42.496;25.620;2022-12-05T02:23:46;9.37;;;7.37;;
17024;SDS011;8629;42.496;25.620;2022-12-05T02:26:54;9.23;;;7.60;;
17024;SDS011;8629;42.496;25.620;2022-12-05T02:32:41;10.10;;;8.07;;
17024;SDS011;8629;42.496;25.620;2022-12-05T02:35:16;10.97;;;9.00;;
17024;SDS011;8629;42.496;25.620;2022-12-05T02:37:53;8.83;;;7.93;;
17024;SDS011;8629;42.496;25.620;2022-12-05T02:40:28;9.97;;;7.87;;
17024;SDS011;8629;42.496;25.620;2022-12-05T02:42:58;10.30;;;8.53;;
17024;SDS011;8629;42.496;25.620;2022-12-05T02:45:30;10.60;;;8.10;;
17024;SDS011;8629;42.496;25.620;2022-12-05T02:47:58;7.83;;;6.67;;
17024;SDS011;8629;42.496;25.620;2022-12-05T02:50:27;7.10;;;6.40;;
17024;SDS011;8629;42.496;25.620;2022-12-05T02:52:59;7.30;;;6.20;;
17024;SDS011;8629;42.496;25.620;2022-12-05T02:55:29;9.63;;;8.63;;
17024;SDS011;8629;42.496;25.620;2022-12-05T02:57:57;7.10;;;6.43;;
17024;SDS011;8629;42.496;25.620;2022-12-05T03:00:29;7.07;;;5.97;;
17024;SDS011;8629;42.496;25.620;2022-12-05T03:03:05;8.93;;;6.60;;
17024;SDS011;8629;42.496;25.620;2022-12-05T03:05:39;7.03;;;5.93;;
17024;SDS011;8629;42.496;25.620;2022-12-05T03:08:09;7.07;;;6.37;;
17024;SDS011;8629;42.496;25.620;2022-12-05T03:10:40;7.30;;;6.27;;
17024;SDS011;8629;42.496;25.620;2022-12-05T03:13:09;6.33;;;5.60;;
17024;SDS011;8629;42.496;25.620;2022-12-05T03:15:43;8.03;;;7.00;;
17024;SDS011;8629;42.496;25.620;2022-12-05T03:18:14;7.07;;;6.37;;
17024;SDS011;8629;42.496;25.620;2022-12-05T03:20:43;7.53;;;6.83;;
17024;SDS011;8629;42.496;25.620;2022-12-05T03:23:15;7.13;;;6.43;;
17024;SDS011;8629;42.496;25.620;2022-12-05T03:25:46;8.17;;;7.37;;
17024;SDS011;8629;42.496;25.620;2022-12-05T03:28:19;8.67;;;6.97;;
17024;SDS011;8629;42.496;25.620;2022-12-05T03:30:52;7.70;;;6.97;;
17024;SDS011;8629;42.496;25.620;2022-12-05T03:33:24;8.20;;;7.37;;
17024;SDS011;8629;42.496;25.620;2022-12-05T03:35:56;8.73;;;7.03;;
17024;SDS011;8629;42.496;25.620;2022-12-05T03:38:28;8.73;;;7.83;;
17024;SDS011;8629;42.496;25.620;2022-12-05T03:41:04;8.80;;;7.87;;
17024;SDS011;8629;42.496;25.620;2022-12-05T03:43:36;8.47;;;7.67;;
17024;SDS011;8629;42.496;25.620;2022-12-05T03:46:09;8.50;;;7.30;;
17024;SDS011;8629;42.496;25.620;2022-12-05T03:48:40;7.93;;;7.17;;
17024;SDS011;8629;42.496;25.620;2022-12-05T03:51:12;8.60;;;7.20;;
17024;SDS011;8629;42.496;25.620;2022-12-05T03:53:43;9.03;;;7.10;;
17024;SDS011;8629;42.496;25.620;2022-12-05T03:56:13;7.63;;;6.50;;
17024;SDS011;8629;42.496;25.620;2022-12-05T03:58:45;7.47;;;6.77;;
17024;SDS011;8629;42.496;25.620;2022-12-05T04:01:17;10.80;;;9.67;;
17024;SDS011;8629;42.496;25.620;2022-12-05T04:03:47;7.87;;;7.07;;
17024;SDS011;8629;42.496;25.620;2022-12-05T04:06:17;7.80;;;7.07;;
17024;SDS011;8629;42.496;25.620;2022-12-05T04:08:49;9.67;;;8.13;;
17024;SDS011;8629;42.496;25.620;2022-12-05T04:11:20;9.03;;;8.13;;
17024;SDS011;8629;42.496;25.620;2022-12-05T04:13:49;8.17;;;7.30;;
17024;SDS011;8629;42.496;25.620;2022-12-05T04:16:21;7.57;;;6.83;;
17024;SDS011;8629;42.496;25.620;2022-12-05T04:21:43;8.20;;;7.40;;
17024;SDS011;8629;42.496;25.620;2022-12-05T04:24:11;7.87;;;7.07;;
17024;SDS011;8629;42.496;25.620;2022-12-05T04:27:09;8.60;;;7.33;;
17024;SDS011;8629;42.496;25.620;2022-12-05T04:29:56;8.90;;;6.97;;
17024;SDS011;8629;42.496;25.620;2022-12-05T04:32:31;9.20;;;8.07;;
17024;SDS011;8629;42.496;25.620;2022-12-05T04:35:06;7.87;;;6.97;;
17024;SDS011;8629;42.496;25.620;2022-12-05T04:37:37;7.20;;;6.50;;
17024;SDS011;8629;42.496;25.620;2022-12-05T04:40:08;8.40;;;7.53;;
17024;SDS011;8629;42.496;25.620;2022-12-05T04:42:37;7.20;;;6.13;;
17024;SDS011;8629;42.496;25.620;2022-12-05T04:45:09;8.43;;;7.63;;
17024;SDS011;8629;42.496;25.620;2022-12-05T04:47:40;8.83;;;8.03;;
17024;SDS011;8629;42.496;25.620;2022-12-05T04:50:11;9.07;;;8.17;;
17024;SDS011;8629;42.496;25.620;2022-12-05T04:52:39;6.97;;;6.27;;
17024;SDS011;8629;42.496;25.620;2022-12-05T04:55:08;9.20;;;6.90;;
17024;SDS011;8629;42.496;25.620;2022-12-05T04:57:37;11.47;;;7.80;;
17024;SDS011;8629;42.496;25.620;2022-12-05T05:00:08;10.33;;;9.13;;
17024;SDS011;8629;42.496;25.620;2022-12-05T05:02:37;11.00;;;9.90;;
17024;SDS011;8629;42.496;25.620;2022-12-05T05:05:08;8.97;;;8.07;;
17024;SDS011;8629;42.496;25.620;2022-12-05T05:07:41;10.47;;;9.37;;
17024;SDS011;8629;42.496;25.620;2022-12-05T05:10:10;10.70;;;8.83;;
17024;SDS011;8629;42.496;25.620;2022-12-05T05:12:38;9.53;;;8.53;;
17024;SDS011;8629;42.496;25.620;2022-12-05T05:15:05;10.00;;;8.67;;
17024;SDS011;8629;42.496;25.620;2022-12-05T05:17:37;10.03;;;8.90;;
17024;SDS011;8629;42.496;25.620;2022-12-05T05:20:08;9.23;;;8.23;;
17024;SDS011;8629;42.496;25.620;2022-12-05T05:22:52;9.63;;;8.37;;
17024;SDS011;8629;42.496;25.620;2022-12-05T05:25:20;9.47;;;8.57;;
17024;SDS011;8629;42.496;25.620;2022-12-05T05:27:48;10.63;;;9.53;;
17024;SDS011;8629;42.496;25.620;2022-12-05T05:33:08;11.33;;;9.50;;
17024;SDS011;8629;42.496;25.620;2022-12-05T05:35:37;10.23;;;9.23;;
17024;SDS011;8629;42.496;25.620;2022-12-05T05:38:05;10.63;;;9.53;;
17024;SDS011;8629;42.496;25.620;2022-12-05T05:40:33;10.80;;;9.37;;
17024;SDS011;8629;42.496;25.620;2022-12-05T05:43:01;10.43;;;8.17;;
17024;SDS011;8629;42.496;25.620;2022-12-05T05:45:29;11.60;;;9.60;;
17024;SDS011;8629;42.496;25.620;2022-12-05T05:47:57;11.77;;;9.43;;
17024;SDS011;8629;42.496;25.620;2022-12-05T05:50:24;11.17;;;9.53;;
17024;SDS011;8629;42.496;25.620;2022-12-05T05:52:53;12.07;;;9.57;;
17024;SDS011;8629;42.496;25.620;2022-12-05T05:55:22;11.43;;;9.70;;
17024;SDS011;8629;42.496;25.620;2022-12-05T05:57:49;9.70;;;8.70;;
17024;SDS011;8629;42.496;25.620;2022-12-05T06:00:16;9.43;;;8.53;;
17024;SDS011;8629;42.496;25.620;2022-12-05T06:02:44;9.30;;;8.40;;
17024;SDS011;8629;42.496;25.620;2022-12-05T06:05:11;10.50;;;9.37;;
17024;SDS011;8629;42.496;25.620;2022-12-05T06:07:38;11.47;;;8.77;;
17024;SDS011;8629;42.496;25.620;2022-12-05T06:10:07;11.17;;;8.97;;
17024;SDS011;8629;42.496;25.620;2022-12-05T06:12:35;9.73;;;8.73;;
17024;SDS011;8629;42.496;25.620;2022-12-05T06:15:03;9.73;;;8.73;;
17024;SDS011;8629;42.496;25.620;2022-12-05T06:17:30;13.93;;;10.77;;
17024;SDS011;8629;42.496;25.620;2022-12-05T06:19:57;10.77;;;9.27;;
17024;SDS011;8629;42.496;25.620;2022-12-05T06:22:24;12.60;;;10.13;;
17024;SDS011;8629;42.496;25.620;2022-12-05T06:24:51;13.67;;;9.77;;
17024;SDS011;8629;42.496;25.620;2022-12-05T06:27:20;12.03;;;10.27;;
17024;SDS011;8629;42.496;25.620;2022-12-05T06:29:47;13.70;;;10.97;;
17024;SDS011;8629;42.496;25.620;2022-12-05T06:32:14;12.43;;;9.83;;
17024;SDS011;8629;42.496;25.620;2022-12-05T06:34:41;10.83;;;9.70;;
17024;SDS011;8629;42.496;25.620;2022-12-05T06:37:08;11.57;;;9.50;;
17024;SDS011;8629;42.496;25.620;2022-12-05T06:39:35;10.20;;;9.20;;
17024;SDS011;8629;42.496;25.620;2022-12-05T06:42:03;10.10;;;9.10;;
17024;SDS011;8629;42.496;25.620;2022-12-05T06:44:31;10.13;;;8.90;;
17024;SDS011;8629;42.496;25.620;2022-12-05T06:46:58;10.33;;;8.70;;
17024;SDS011;8629;42.496;25.620;2022-12-05T06:49:25;10.77;;;9.30;;
17024;SDS011;8629;42.496;25.620;2022-12-05T06:51:56;10.33;;;9.17;;
17024;SDS011;8629;42.496;25.620;2022-12-05T06:54:23;11.10;;;9.60;;
17024;SDS011;8629;42.496;25.620;2022-12-05T06:56:50;11.97;;;10.77;;
17024;SDS011;8629;42.496;25.620;2022-12-05T06:59:18;14.50;;;9.70;;
17024;SDS011;8629;42.496;25.620;2022-12-05T07:01:47;10.63;;;8.80;;
17024;SDS011;8629;42.496;25.620;2022-12-05T07:04:14;12.17;;;9.80;;
17024;SDS011;8629;42.496;25.620;2022-12-05T07:06:47;13.33;;;11.93;;
17024;SDS011;8629;42.496;25.620;2022-12-05T07:09:14;17.00;;;12.10;;
17024;SDS011;8629;42.496;25.620;2022-12-05T07:11:42;25.17;;;16.50;;
17024;SDS011;8629;42.496;25.620;2022-12-05T07:14:09;20.00;;;14.87;;
17024;SDS011;8629;42.496;25.620;2022-12-05T07:16:36;18.60;;;14.30;;
17024;SDS011;8629;42.496;25.620;2022-12-05T07:19:05;17.33;;;14.73;;
17024;SDS011;8629;42.496;25.620;2022-12-05T07:21:32;15.53;;;13.87;;
17024;SDS011;8629;42.496;25.620;2022-12-05T07:23:59;15.27;;;13.53;;
17024;SDS011;8629;42.496;25.620;2022-12-05T07:26:26;20.20;;;16.53;;
17024;SDS011;8629;42.496;25.620;2022-12-05T07:28:54;20.67;;;16.63;;
17024;SDS011;8629;42.496;25.620;2022-12-05T07:31:21;14.83;;;12.67;;
17024;SDS011;8629;42.496;25.620;2022-12-05T07:33:50;12.37;;;11.07;;
17024;SDS011;8629;42.496;25.620;2022-12-05T07:36:19;14.10;;;11.33;;
17024;SDS011;8629;42.496;25.620;2022-12-05T07:38:47;14.60;;;13.03;;
17024;SDS011;8629;42.496;25.620;2022-12-05T07:41:20;15.10;;;13.60;;
17024;SDS011;8629;42.496;25.620;2022-12-05T07:43:49;16.37;;;13.80;;
17024;SDS011;8629;42.496;25.620;2022-12-05T07:46:16;14.40;;;12.60;;
17024;SDS011;8629;42.496;25.620;2022-12-05T07:48:43;11.90;;;10.63;;
17024;SDS011;8629;42.496;25.620;2022-12-05T07:51:10;12.03;;;9.23;;
17024;SDS011;8629;42.496;25.620;2022-12-05T07:53:39;11.13;;;9.60;;
17024;SDS011;8629;42.496;25.620;2022-12-05T07:56:08;13.53;;;9.67;;
17024;SDS011;8629;42.496;25.620;2022-12-05T07:58:36;14.20;;;12.13;;
17024;SDS011;8629;42.496;25.620;2022-12-05T08:01:06;16.23;;;10.60;;
17024;SDS011;8629;42.496;25.620;2022-12-05T08:03:33;10.37;;;9.37;;
17024;SDS011;8629;42.496;25.620;2022-12-05T08:06:01;11.97;;;10.17;;
17024;SDS011;8629;42.496;25.620;2022-12-05T08:08:29;12.57;;;11.07;;
17024;SDS011;8629;42.496;25.620;2022-12-05T08:11:02;12.50;;;10.60;;
17024;SDS011;8629;42.496;25.620;2022-12-05T08:13:30;16.63;;;12.10;;
17024;SDS011;8629;42.496;25.620;2022-12-05T08:15:59;19.67;;;14.77;;
17024;SDS011;8629;42.496;25.620;2022-12-05T08:18:27;13.03;;;11.53;;
17024;SDS011;8629;42.496;25.620;2022-12-05T08:20:54;10.83;;;9.73;;
17024;SDS011;8629;42.496;25.620;2022-12-05T08:23:21;12.53;;;10.03;;
17024;SDS011;8629;42.496;25.620;2022-12-05T08:25:48;12.73;;;11.40;;
17024;SDS011;8629;42.496;25.620;2022-12-05T08:28:17;10.70;;;9.60;;
17024;SDS011;8629;42.496;25.620;2022-12-05T08:30:44;13.17;;;9.90;;
17024;SDS011;8629;42.496;25.620;2022-12-05T08:33:11;11.27;;;9.27;;
17024;SDS011;8629;42.496;25.620;2022-12-05T08:35:38;10.40;;;8.47;;
17024;SDS011;8629;42.496;25.620;2022-12-05T08:38:05;10.53;;;8.07;;
17024;SDS011;8629;42.496;25.620;2022-12-05T08:40:33;9.00;;;8.10;;
17024;SDS011;8629;42.496;25.620;2022-12-05T08:43:00;11.03;;;9.10;;
17024;SDS011;8629;42.496;25.620;2022-12-05T08:45:29;14.17;;;12.17;;
17024;SDS011;8629;42.496;25.620;2022-12-05T08:47:56;12.50;;;10.60;;
17024;SDS011;8629;42.496;25.620;2022-12-05T08:50:23;9.60;;;8.40;;
17024;SDS011;8629;42.496;25.620;2022-12-05T08:52:50;10.97;;;9.27;;
17024;SDS011;8629;42.496;25.620;2022-12-05T08:55:17;19.13;;;12.33;;
17024;SDS011;8629;42.496;25.620;2022-12-05T08:57:44;9.63;;;8.43;;
17024;SDS011;8629;42.496;25.620;2022-12-05T09:00:12;13.70;;;11.40;;
17024;SDS011;8629;42.496;25.620;2022-12-05T09:02:41;11.40;;;8.87;;
17024;SDS011;8629;42.496;25.620;2022-12-05T09:05:08;16.03;;;11.37;;
17024;SDS011;8629;42.496;25.620;2022-12-05T09:07:36;17.93;;;11.63;;
17024;SDS011;8629;42.496;25.620;2022-12-05T09:10:03;12.53;;;8.30;;
17024;SDS011;8629;42.496;25.620;2022-12-05T09:12:30;9.37;;;7.27;;
17024;SDS011;8629;42.496;25.620;2022-12-05T09:14:57;8.40;;;7.10;;
17024;SDS011;8629;42.496;25.620;2022-12-05T09:17:25;7.63;;;6.10;;
17024;SDS011;8629;42.496;25.620;2022-12-05T09:19:54;7.27;;;5.00;;
17024;SDS011;8629;42.496;25.620;2022-12-05T09:22:21;8.17;;;6.87;;
17024;SDS011;8629;42.496;25.620;2022-12-05T09:24:49;8.00;;;6.37;;
17024;SDS011;8629;42.496;25.620;2022-12-05T09:27:16;7.03;;;6.33;;
17024;SDS011;8629;42.496;25.620;2022-12-05T09:29:46;6.03;;;5.50;;
17024;SDS011;8629;42.496;25.620;2022-12-05T09:32:14;9.03;;;7.33;;
17024;SDS011;8629;42.496;25.620;2022-12-05T09:34:40;9.77;;;7.00;;
17024;SDS011;8629;42.496;25.620;2022-12-05T09:37:09;6.73;;;5.73;;
17024;SDS011;8629;42.496;25.620;2022-12-05T09:39:36;5.30;;;4.80;;
17024;SDS011;8629;42.496;25.620;2022-12-05T09:42:10;5.33;;;4.57;;
17024;SDS011;8629;42.496;25.620;2022-12-05T09:47:45;4.73;;;4.33;;
17024;SDS011;8629;42.496;25.620;2022-12-05T09:50:17;5.03;;;4.57;;
17024;SDS011;8629;42.496;25.620;2022-12-05T09:52:52;6.27;;;5.63;;
17024;SDS011;8629;42.496;25.620;2022-12-05T09:55:37;5.87;;;5.27;;
17024;SDS011;8629;42.496;25.620;2022-12-05T09:58:14;6.53;;;5.93;;
17024;SDS011;8629;42.496;25.620;2022-12-05T10:00:45;4.87;;;4.40;;
17024;SDS011;8629;42.496;25.620;2022-12-05T10:03:18;5.00;;;4.50;;
17024;SDS011;8629;42.496;25.620;2022-12-05T10:05:49;4.87;;;4.47;;
17024;SDS011;8629;42.496;25.620;2022-12-05T10:08:23;6.83;;;4.97;;
17024;SDS011;8629;42.496;25.620;2022-12-05T10:10:54;11.33;;;9.87;;
17024;SDS011;8629;42.496;25.620;2022-12-05T10:13:29;8.00;;;7.17;;
17024;SDS011;8629;42.496;25.620;2022-12-05T10:16:12;6.53;;;5.77;;
17024;SDS011;8629;42.496;25.620;2022-12-05T10:18:41;4.47;;;4.10;;
17024;SDS011;8629;42.496;25.620;2022-12-05T10:21:12;4.30;;;3.90;;
17024;SDS011;8629;42.496;25.620;2022-12-05T10:23:45;4.60;;;4.20;;
17024;SDS011;8629;42.496;25.620;2022-12-05T10:26:16;6.30;;;5.80;;
17024;SDS011;8629;42.496;25.620;2022-12-05T10:28:46;4.90;;;4.40;;
17024;SDS011;8629;42.496;25.620;2022-12-05T10:31:19;5.30;;;4.80;;
17024;SDS011;8629;42.496;25.620;2022-12-05T10:33:50;4.27;;;3.90;;
17024;SDS011;8629;42.496;25.620;2022-12-05T10:36:22;6.00;;;5.40;;
17024;SDS011;8629;42.496;25.620;2022-12-05T10:38:52;3.87;;;3.47;;
17024;SDS011;8629;42.496;25.620;2022-12-05T10:41:20;4.37;;;3.93;;
17024;SDS011;8629;42.496;25.620;2022-12-05T10:43:47;4.27;;;3.97;;
17024;SDS011;8629;42.496;25.620;2022-12-05T10:46:14;4.50;;;4.03;;
17024;SDS011;8629;42.496;25.620;2022-12-05T10:48:42;4.37;;;3.97;;
17024;SDS011;8629;42.496;25.620;2022-12-05T10:51:12;4.77;;;4.37;;
17024;SDS011;8629;42.496;25.620;2022-12-05T10:53:40;6.70;;;6.03;;
17024;SDS011;8629;42.496;25.620;2022-12-05T10:59:08;6.00;;;5.40;;
17024;SDS011;8629;42.496;25.620;2022-12-05T11:01:37;5.90;;;5.40;;
17024;SDS011;8629;42.496;25.620;2022-12-05T11:04:23;6.13;;;5.30;;
17024;SDS011;8629;42.496;25.620;2022-12-05T11:06:54;5.00;;;4.53;;
17024;SDS011;8629;42.496;25.620;2022-12-05T11:09:24;7.63;;;6.70;;
17024;SDS011;8629;42.496;25.620;2022-12-05T11:12:04;10.23;;;9.23;;
17024;SDS011;8629;42.496;25.620;2022-12-05T11:14:52;9.50;;;8.47;;
17024;SDS011;8629;42.496;25.620;2022-12-05T11:17:25;10.73;;;9.63;;
17024;SDS011;8629;42.496;25.620;2022-12-05T11:19:52;8.93;;;7.83;;
17024;SDS011;8629;42.496;25.620;2022-12-05T11:22:19;10.83;;;8.10;;
17024;SDS011;8629;42.496;25.620;2022-12-05T11:24:49;8.90;;;7.83;;
17024;SDS011;8629;42.496;25.620;2022-12-05T11:27:25;12.43;;;10.37;;
17024;SDS011;8629;42.496;25.620;2022-12-05T11:29:54;11.80;;;8.77;;
17024;SDS011;8629;42.496;25.620;2022-12-05T11:32:23;10.77;;;8.73;;
17024;SDS011;8629;42.496;25.620;2022-12-05T11:34:52;16.10;;;11.83;;
17024;SDS011;8629;42.496;25.620;2022-12-05T11:37:24;15.40;;;12.70;;
17024;SDS011;8629;42.496;25.620;2022-12-05T11:39:53;14.60;;;13.03;;
17024;SDS011;8629;42.496;25.620;2022-12-05T11:42:24;14.67;;;12.87;;
17024;SDS011;8629;42.496;25.620;2022-12-05T11:45:14;19.47;;;14.20;;
17024;SDS011;8629;42.496;25.620;2022-12-05T11:47:49;16.27;;;13.60;;
17024;SDS011;8629;42.496;25.620;2022-12-05T11:50:30;12.80;;;11.43;;
17024;SDS011;8629;42.496;25.620;2022-12-05T11:53:06;16.00;;;14.27;;
17024;SDS011;8629;42.496;25.620;2022-12-05T11:55:41;17.13;;;13.57;;
17024;SDS011;8629;42.496;25.620;2022-12-05T11:58:16;17.30;;;12.13;;
17024;SDS011;8629;42.496;25.620;2022-12-05T12:01:00;12.20;;;10.93;;
17024;SDS011;8629;42.496;25.620;2022-12-05T12:06:32;14.00;;;12.47;;
17024;SDS011;8629;42.496;25.620;2022-12-05T12:09:12;17.83;;;12.43;;
17024;SDS011;8629;42.496;25.620;2022-12-05T12:11:54;14.40;;;11.80;;
17024;SDS011;8629;42.496;25.620;2022-12-05T12:14:25;10.73;;;8.93;;
17024;SDS011;8629;42.496;25.620;2022-12-05T12:17:02;9.70;;;8.70;;
17024;SDS011;8629;42.496;25.620;2022-12-05T12:19:37;10.30;;;8.97;;
17024;SDS011;8629;42.496;25.620;2022-12-05T12:22:20;6.50;;;5.87;;
17024;SDS011;8629;42.496;25.620;2022-12-05T12:25:08;6.43;;;5.83;;
17024;SDS011;8629;42.496;25.620;2022-12-05T12:27:44;6.27;;;5.67;;
17024;SDS011;8629;42.496;25.620;2022-12-05T12:30:20;6.57;;;5.70;;
17024;SDS011;8629;42.496;25.620;2022-12-05T12:32:53;7.80;;;6.93;;
17024;SDS011;8629;42.496;25.620;2022-12-05T12:35:28;6.87;;;5.37;;
17024;SDS011;8629;42.496;25.620;2022-12-05T12:38:06;6.43;;;5.80;;
17024;SDS011;8629;42.496;25.620;2022-12-05T12:40:43;10.17;;;6.90;;
17024;SDS011;8629;42.496;25.620;2022-12-05T12:43:16;6.30;;;5.70;;
17024;SDS011;8629;42.496;25.620;2022-12-05T12:45:57;5.87;;;5.30;;
17024;SDS011;8629;42.496;25.620;2022-12-05T12:48:36;5.73;;;5.10;;
17024;SDS011;8629;42.496;25.620;2022-12-05T12:51:15;6.97;;;6.37;;
17024;SDS011;8629;42.496;25.620;2022-12-05T12:56:59;8.47;;;6.90;;
17024;SDS011;8629;42.496;25.620;2022-12-05T12:59:36;7.37;;;6.63;;
17024;SDS011;8629;42.496;25.620;2022-12-05T13:02:12;6.47;;;5.83;;
17024;SDS011;8629;42.496;25.620;2022-12-05T13:04:45;5.73;;;5.23;;
17024;SDS011;8629;42.496;25.620;2022-12-05T13:07:14;5.50;;;4.87;;
17024;SDS011;8629;42.496;25.620;2022-12-05T13:09:44;6.40;;;5.70;;
17024;SDS011;8629;42.496;25.620;2022-12-05T13:12:15;7.60;;;5.83;;
17024;SDS011;8629;42.496;25.620;2022-12-05T13:14:44;6.67;;;5.97;;
17024;SDS011;8629;42.496;25.620;2022-12-05T13:17:16;9.30;;;6.53;;
17024;SDS011;8629;42.496;25.620;2022-12-05T13:19:47;8.97;;;6.70;;
17024;SDS011;8629;42.496;25.620;2022-12-05T13:22:14;8.07;;;7.27;;
17024;SDS011;8629;42.496;25.620;2022-12-05T13:24:43;7.07;;;6.07;;
17024;SDS011;8629;42.496;25.620;2022-12-05T13:27:13;17.30;;;12.10;;
17024;SDS011;8629;42.496;25.620;2022-12-05T13:29:42;14.77;;;11.17;;
17024;SDS011;8629;42.496;25.620;2022-12-05T13:32:24;17.80;;;12.70;;
17024;SDS011;8629;42.496;25.620;2022-12-05T13:34:53;40.07;;;24.10;;
17024;SDS011;8629;42.496;25.620;2022-12-05T13:37:22;10.07;;;9.00;;
17024;SDS011;8629;42.496;25.620;2022-12-05T13:40:18;11.93;;;10.73;;
17024;SDS011;8629;42.496;25.620;2022-12-05T13:43:06;9.00;;;8.10;;
17024;SDS011;8629;42.496;25.620;2022-12-05T13:45:34;12.10;;;9.73;;
17024;SDS011;8629;42.496;25.620;2022-12-05T13:50:49;21.50;;;15.43;;
17024;SDS011;8629;42.496;25.620;2022-12-05T13:53:24;21.93;;;15.97;;
17024;SDS011;8629;42.496;25.620;2022-12-05T13:55:56;61.00;;;31.07;;
17024;SDS011;8629;42.496;25.620;2022-12-05T13:58:45;75.00;;;36.93;;
17024;SDS011;8629;42.496;25.620;2022-12-05T14:04:40;149.17;;;72.30;;
17024;SDS011;8629;42.496;25.620;2022-12-05T14:07:10;72.93;;;40.50;;
17024;SDS011;8629;42.496;25.620;2022-12-05T14:09:50;53.10;;;28.60;;
17024;SDS011;8629;42.496;25.620;2022-12-05T14:12:28;142.30;;;63.77;;
17024;SDS011;8629;42.496;25.620;2022-12-05T14:18:12;19.30;;;15.33;;
17024;SDS011;8629;42.496;25.620;2022-12-05T14:20:50;36.37;;;25.57;;
17024;SDS011;8629;42.496;25.620;2022-12-05T14:26:17;26.50;;;19.40;;
17024;SDS011;8629;42.496;25.620;2022-12-05T14:29:02;17.80;;;15.27;;
17024;SDS011;8629;42.496;25.620;2022-12-05T14:31:46;11.43;;;10.17;;
17024;SDS011;8629;42.496;25.620;2022-12-05T14:34:22;11.80;;;10.53;;
17024;SDS011;8629;42.496;25.620;2022-12-05T14:36:52;20.40;;;14.63;;
17024;SDS011;8629;42.496;25.620;2022-12-05T14:39:21;23.17;;;20.60;;
17024;SDS011;8629;42.496;25.620;2022-12-05T14:41:54;32.77;;;26.53;;
17024;SDS011;8629;42.496;25.620;2022-12-05T14:44:22;32.80;;;23.50;;
17024;SDS011;8629;42.496;25.620;2022-12-05T14:46:54;33.13;;;25.40;;
17024;SDS011;8629;42.496;25.620;2022-12-05T14:49:33;19.13;;;17.17;;
17024;SDS011;8629;42.496;25.620;2022-12-05T14:52:09;20.97;;;18.87;;
17024;SDS011;8629;42.496;25.620;2022-12-05T14:54:37;16.43;;;14.77;;
17024;SDS011;8629;42.496;25.620;2022-12-05T14:57:08;30.20;;;22.77;;
17024;SDS011;8629;42.496;25.620;2022-12-05T14:59:42;54.70;;;36.43;;
17024;SDS011;8629;42.496;25.620;2022-12-05T15:02:15;83.67;;;58.17;;
17024;SDS011;8629;42.496;25.620;2022-12-05T15:04:45;78.07;;;52.47;;
17024;SDS011;8629;42.496;25.620;2022-12-05T15:07:16;55.70;;;43.47;;
17024;SDS011;8629;42.496;25.620;2022-12-05T15:09:49;39.43;;;32.53;;
17024;SDS011;8629;42.496;25.620;2022-12-05T15:12:24;45.53;;;33.93;;
17024;SDS011;8629;42.496;25.620;2022-12-05T15:14:59;37.23;;;30.50;;
17024;SDS011;8629;42.496;25.620;2022-12-05T15:17:33;44.00;;;37.80;;
17024;SDS011;8629;42.496;25.620;2022-12-05T15:20:04;39.20;;;33.33;;
17024;SDS011;8629;42.496;25.620;2022-12-05T15:22:37;27.97;;;22.90;;
17024;SDS011;8629;42.496;25.620;2022-12-05T15:25:20;20.77;;;18.30;;
17024;SDS011;8629;42.496;25.620;2022-12-05T15:27:52;19.43;;;17.33;;
17024;SDS011;8629;42.496;25.620;2022-12-05T15:30:21;16.90;;;15.07;;
17024;SDS011;8629;42.496;25.620;2022-12-05T15:32:51;17.43;;;15.37;;